X  Schlie├čen METAR Luftfahrt Wetterdaten     EDDM Munich Airport
Temperatur
15°C Temperatur
11°C Taupunkt
77% Feuchtigkeit



Wind
7 MPS
11 km/h
3 m/s
6 Ktn



320°
NW
Aktuelle Wetterlage

Meistens vereinzelte Wolken Meistens vereinzelte Wolken
Luftdruck 1010.92 (hPa) - 29.85 (inchHg)
Sichtweite 6.2 (Meile) - 10 (Km)
Flughafen
Flughafen Code EDDM

Position : Munich Airport
Entfernung: 73 (mi)

Metar:
EDDM 251250Z AUTO 32006KT 290V360 9999 SCT018 BKN029 15/11 Q1011 NOSIG

Zeit: 25-09-2022 14:50 CEST